Flight Track Log - Related Links

Times and Time Zones

All times are in EST time to prevent confusion due to time zone crossing. See the RPA3275 flight status page for this flight to view local times or setup timezone preferences in your user account.

Time Position Orientation Groundspeed Altitude Reporting Facility
EST Latitude Longitude Course Direction KTS MPH feet Rate Location/Type
Wed 07:03:37 AM 42.7653 -73.8078 201° Southwest 156 180 1,500  Level Boston Center
Wed 07:03:55 AM 42.7761 -73.8203 320° Northwest 154 177 2,100 2,211 Climbing Boston Center
Wed 07:04:34 AM 42.7775 -73.8700 272° West 198 228 3,600 3,120 Climbing Boston Center
Wed 07:05:35 AM 42.7717 -73.9567 265° West 230 265 7,300 3,443 Climbing Boston Center
Wed 07:06:00 AM 42.5619 -73.8999 201° Southwest  Level Estimated
Wed 07:06:36 AM 42.7656 -74.0397 264° West 223 257 10,600  Level Boston Center
Wed 07:07:00 AM 42.4786 -73.9432 201° Southwest  Level Estimated
Wed 07:07:37 AM 42.7594 -74.1303 265° West 239 275 12,800  Level Boston Center
Wed 07:08:00 AM 42.3954 -73.9864 201° Southwest  Level Estimated
Wed 07:08:38 AM 42.7525 -74.2264 264° West 255 293 15,300  Level Boston Center
Wed 07:09:00 AM 42.3171 -74.0269 201° Southwest  Level Estimated
Wed 07:09:39 AM 42.7311 -74.3256 254° West 264 304 17,600  Level Boston Center
Wed 07:10:39 AM 42.6692 -74.3972 220° Southwest 292 336 19,000 694 Climbing Boston Center
Wed 07:11:40 AM 42.6064 -74.4706 221° Southwest 298 343 19,000  Level Boston Center
Wed 07:12:41 AM 42.5431 -74.5433 220° Southwest 299 344 19,000  Level Boston Center
Wed 07:13:42 AM 42.4742 -74.6208 220° Southwest 300 345 19,000  Level Boston Center
Wed 07:14:43 AM 42.4117 -74.6933 221° Southwest 297 342 19,000  Level Boston Center
Wed 07:15:44 AM 42.3478 -74.7661 220° Southwest 301 346 19,000  Level Boston Center
Wed 07:16:45 AM 42.2886 -74.8322 220° Southwest 298 343 19,000  Level Boston Center
Wed 07:17:46 AM 42.2253 -74.9047 220° Southwest 298 343 19,000  Level Boston Center
Wed 07:18:47 AM 42.1511 -74.9811 217° Southwest 331 381 19,000  Level Boston Center
Wed 07:19:48 AM 42.0694 -75.0469 211° Southwest 344 396 19,000  Level Boston Center
Wed 07:20:49 AM 41.9725 -75.1269 212° Southwest 350 403 19,000  Level Boston Center
Wed 07:21:50 AM 41.9028 -75.1831 211° Southwest 349 402 19,000  Level Boston Center
Wed 07:22:51 AM 41.8194 -75.2506 211° Southwest 350 403 19,000 -787 Level Boston Center
Wed 07:23:52 AM 41.7208 -75.3297 211° Southwest 346 398 17,400 -1,623 Descending Boston Center
Wed 07:24:53 AM 41.6381 -75.3972 211° Southwest 347 399 15,700 -1,672 Descending Boston Center
Wed 07:25:54 AM 41.5572 -75.4608 210° Southwest 342 394 14,000 -1,672 Descending Boston Center
Wed 07:26:55 AM 41.4797 -75.5253 212° Southwest 332 382 12,300 -984 Descending Boston Center
Wed 07:27:56 AM 41.4025 -75.5864 211° Southwest 325 374 12,000 -148 Descending Boston Center
Wed 07:28:57 AM 41.3239 -75.6483 211° Southwest 325 374 12,000  Level Boston Center
Wed 07:29:58 AM 41.2364 -75.6881 199° South 344 396 12,000  Level Boston Center
Wed 07:30:59 AM 41.1381 -75.6831 178° South 356 410 12,000 -295 Level Boston Center
Wed 07:32:00 AM 41.0389 -75.6467 165° South 366 421 11,400 -787 Descending Boston Center
Wed 07:33:01 AM 40.9447 -75.6108 164° South 357 411 10,400 -627 Descending Boston Center
Wed 07:34:14 AM 40.8225 -75.5672 165° South 351 404 10,000 -180 Descending New York Center
Wed 07:35:14 AM 40.7383 -75.5367 165° South 351 404 10,000  Level New York Center
Wed 07:36:14 AM 40.6458 -75.5028 164° South 351 404 10,000  Level New York Center
Wed 07:37:14 AM 40.5536 -75.4692 165° South 351 404 10,000  Level New York Center
Wed 07:38:14 AM 40.4672 -75.4386 165° South 325 374 10,000 -550 Level New York Center
Wed 07:39:14 AM 40.3939 -75.3983 157° South 295 339 8,900 -1,450 Descending New York Center
Wed 07:40:14 AM 40.3306 -75.3614 156° South 283 326 7,100 -1,050 Descending New York Center
Wed 07:41:14 AM 40.2572 -75.3211 157° South 283 326 6,800 -550 Descending New York Center
Wed 07:42:14 AM 40.1794 -75.2808 158° South 283 326 6,000 -400 Descending New York Center
Wed 07:43:14 AM 40.1103 -75.2356 153° Southeast 283 326 6,000  Level New York Center
Wed 07:44:14 AM 40.0544 -75.1694 138° Southeast 275 316 6,000  Level New York Center
Wed 07:45:14 AM 40.0192 -75.1103 128° Southeast 249 287 6,000 -750 Level New York Center
Wed 07:46:14 AM 39.9756 -75.0508 134° Southeast 214 246 4,500 -1,596 Descending New York Center
Wed 07:46:48 AM 39.9500 -75.0333 152° Southeast 197 227 3,500 -1,596 Descending Philadelphia TRACON
Wed 07:47:48 AM 39.9000 -75.0667 207° Southwest 189 217 2,000 -947 Descending Philadelphia TRACON
Wed 07:48:42 AM 39.9000 -75.1167 270° West 162 186 1,700 -556 Descending Philadelphia TRACON
Wed 07:49:36 AM 39.8833 -75.1667 247° West 130 150 1,000 -750 Descending Philadelphia TRACON
Wed 07:50:42 AM 39.8833 -75.2167 270° West 137 158 200 -727 Descending Philadelphia TRACON

Login

Don't have an account? Register now (free) for customized features, flight alerts, and more!